createdAt,value
2019-01-31T00:00:04.490Z,30.02
2019-01-31T00:03:33.695Z,27.87
2019-01-31T00:06:35.650Z,28.62
2019-01-31T00:09:46.449Z,29.52
2019-01-31T00:12:30.843Z,30.92
2019-01-31T00:15:41.641Z,29.63
2019-01-31T00:18:30.356Z,30.70
2019-01-31T00:21:41.466Z,29.07
2019-01-31T00:24:25.629Z,31.52
2019-01-31T00:27:36.458Z,31.80
2019-01-31T00:30:38.564Z,28.87
2019-01-31T00:33:49.367Z,28.52
2019-01-31T00:36:35.794Z,30.32
2019-01-31T00:39:46.604Z,29.20
2019-01-31T00:42:49.036Z,32.10
2019-01-31T00:46:17.919Z,28.55
2019-01-31T00:49:02.112Z,30.00
2019-01-31T00:52:12.939Z,29.80
2019-01-31T00:55:16.887Z,31.90
2019-01-31T00:58:45.493Z,29.87
2019-01-31T01:01:30.003Z,27.90
2019-01-31T01:04:40.816Z,29.05
2019-01-31T01:07:27.997Z,28.60
2019-01-31T01:10:38.796Z,29.18
2019-01-31T01:13:25.481Z,29.05
2019-01-31T01:16:54.335Z,28.77
2019-01-31T01:19:56.707Z,27.62
2019-01-31T01:23:08.167Z,28.67
2019-01-31T01:26:17.227Z,27.02
2019-01-31T01:29:28.279Z,27.45
2019-01-31T01:32:38.354Z,26.07
2019-01-31T01:35:51.170Z,28.57
2019-01-31T01:38:39.960Z,26.90
2019-01-31T01:41:51.079Z,25.60
2019-01-31T01:44:52.870Z,26.62
2019-01-31T01:48:03.667Z,26.73
2019-01-31T01:50:51.393Z,26.10
2019-01-31T01:54:20.265Z,25.82
2019-01-31T01:57:22.736Z,26.65
2019-01-31T02:00:51.337Z,26.80
2019-01-31T02:03:38.284Z,25.32
2019-01-31T02:06:49.102Z,28.27
2019-01-31T02:09:33.740Z,27.50
2019-01-31T02:12:45.098Z,25.50
2019-01-31T02:15:47.980Z,25.12
2019-01-31T02:19:16.659Z,23.40
2019-01-31T02:22:00.816Z,23.70
2019-01-31T02:25:12.267Z,26.40
2019-01-31T02:28:14.641Z,25.60
2019-01-31T02:31:43.502Z,24.70
2019-01-31T02:34:27.851Z,24.82
2019-01-31T02:37:38.930Z,25.70
2019-01-31T02:40:25.897Z,25.12
2019-01-31T02:43:38.471Z,23.07
2019-01-31T02:46:45.172Z,21.95
2019-01-31T02:49:55.972Z,22.48
2019-01-31T02:52:44.930Z,23.15
2019-01-31T02:55:56.096Z,23.27
2019-01-31T02:58:40.347Z,22.20
2019-01-31T03:02:08.955Z,22.60
2019-01-31T03:04:56.113Z,23.70
2019-01-31T03:08:26.328Z,21.93
2019-01-31T03:11:10.833Z,22.00
2019-01-31T03:17:32.087Z,23.55
2019-01-31T03:20:19.957Z,23.10
2019-01-31T03:23:22.241Z,23.50
2019-01-31T03:26:51.109Z,23.62
2019-01-31T03:29:38.855Z,21.52
2019-01-31T03:33:07.440Z,21.75
2019-01-31T03:36:20.030Z,22.35
2019-01-31T03:39:48.900Z,22.10
2019-01-31T03:42:33.282Z,21.12
2019-01-31T03:45:44.102Z,21.60
2019-01-31T03:48:47.322Z,22.60
2019-01-31T03:51:58.144Z,22.25
2019-01-31T03:54:45.448Z,22.42
2019-01-31T03:57:56.246Z,22.93
2019-01-31T04:00:43.074Z,20.02
2019-01-31T04:03:55.899Z,22.60
2019-01-31T04:06:40.154Z,20.60
2019-01-31T04:09:30.240Z,21.52
2019-01-31T04:12:20.662Z,21.68
2019-01-31T04:15:10.858Z,22.37
2019-01-31T04:17:55.531Z,22.32
2019-01-31T04:20:45.567Z,21.33
2019-01-31T04:23:28.002Z,21.25
2019-01-31T04:29:19.264Z,20.50
2019-01-31T04:32:09.046Z,22.25
2019-01-31T04:34:51.710Z,22.42
2019-01-31T04:37:41.462Z,21.30
2019-01-31T04:40:30.858Z,20.40
2019-01-31T04:43:08.754Z,22.15
2019-01-31T04:46:17.622Z,22.02
2019-01-31T04:49:02.364Z,19.90
2019-01-31T04:51:52.237Z,21.45
2019-01-31T04:54:32.949Z,21.42
2019-01-31T04:57:15.736Z,20.62
2019-01-31T05:00:26.847Z,19.62
2019-01-31T05:03:09.325Z,20.45
2019-01-31T05:05:59.097Z,20.17
2019-01-31T05:08:40.109Z,20.72
2019-01-31T05:11:30.248Z,20.25
2019-01-31T05:14:13.489Z,18.20
2019-01-31T05:17:03.747Z,19.55
2019-01-31T05:19:46.250Z,20.32
2019-01-31T05:22:36.328Z,20.45
2019-01-31T05:25:19.465Z,20.02
2019-01-31T05:31:11.147Z,20.52
2019-01-31T05:34:01.555Z,19.12
2019-01-31T05:36:45.537Z,18.60
2019-01-31T05:39:35.605Z,18.70
2019-01-31T05:42:18.926Z,20.77
2019-01-31T05:45:29.746Z,20.80
2019-01-31T05:48:14.582Z,19.40
2019-01-31T05:54:30.690Z,19.82
2019-01-31T05:57:20.853Z,19.07
2019-01-31T06:00:03.934Z,19.87
2019-01-31T06:02:54.063Z,19.42
2019-01-31T06:05:38.285Z,18.12
2019-01-31T06:08:28.068Z,22.30
2019-01-31T06:11:10.438Z,22.00
2019-01-31T06:14:00.867Z,19.55
2019-01-31T06:16:43.281Z,19.00
2019-01-31T06:23:00.586Z,19.50
2019-01-31T06:25:50.378Z,20.60
2019-01-31T06:28:40.269Z,18.25
2019-01-31T06:31:23.584Z,19.12
2019-01-31T06:34:13.391Z,20.20
2019-01-31T06:36:56.490Z,18.87
2019-01-31T06:42:53.970Z,18.90
2019-01-31T06:45:43.766Z,19.70
2019-01-31T06:48:26.916Z,19.25
2019-01-31T06:51:09.906Z,20.30
2019-01-31T06:53:59.664Z,19.98
2019-01-31T06:56:42.769Z,18.70
2019-01-31T06:59:32.553Z,20.55
2019-01-31T07:02:14.895Z,19.20
2019-01-31T07:05:25.980Z,19.15
2019-01-31T07:08:08.746Z,19.12
2019-01-31T07:10:58.822Z,20.85
2019-01-31T07:13:42.229Z,20.97
2019-01-31T07:16:31.989Z,21.10
2019-01-31T07:19:14.531Z,21.95
2019-01-31T07:22:04.607Z,20.70
2019-01-31T07:24:46.890Z,20.77
2019-01-31T07:31:04.091Z,21.80
2019-01-31T07:33:46.656Z,20.60
2019-01-31T07:36:36.839Z,20.55
2019-01-31T07:39:19.288Z,20.77
2019-01-31T07:42:09.075Z,19.90
2019-01-31T07:44:51.591Z,19.65
2019-01-31T07:47:41.404Z,19.90
2019-01-31T07:50:24.017Z,19.50
2019-01-31T07:53:14.165Z,18.85
2019-01-31T07:55:56.433Z,19.32
2019-01-31T07:58:39.341Z,19.48
2019-01-31T08:01:29.387Z,19.15
2019-01-31T08:04:12.053Z,19.50
2019-01-31T08:07:01.829Z,19.07
2019-01-31T08:09:42.584Z,20.48
2019-01-31T08:12:34.628Z,18.65
2019-01-31T08:15:36.806Z,20.08
2019-01-31T08:18:27.248Z,20.70
2019-01-31T08:21:10.196Z,19.70
2019-01-31T08:24:00.012Z,19.42
2019-01-31T08:26:43.016Z,19.42
2019-01-31T08:29:32.867Z,18.60
2019-01-31T08:32:13.553Z,19.07
2019-01-31T08:35:03.355Z,19.37
2019-01-31T08:37:46.061Z,19.15
2019-01-31T08:40:36.143Z,19.75
2019-01-31T08:43:20.547Z,19.07
2019-01-31T08:46:10.456Z,19.48
2019-01-31T08:48:54.543Z,20.35
2019-01-31T08:51:44.319Z,20.37
2019-01-31T08:54:28.954Z,18.82
2019-01-31T08:57:18.798Z,18.10
2019-01-31T09:00:03.625Z,17.80
2019-01-31T09:02:53.658Z,18.45
2019-01-31T09:05:36.380Z,18.87
2019-01-31T09:08:26.131Z,19.87
2019-01-31T09:11:08.928Z,18.48
2019-01-31T09:13:59.005Z,19.07
2019-01-31T09:16:41.917Z,18.40
2019-01-31T09:19:31.676Z,19.20
2019-01-31T09:22:16.635Z,20.62
2019-01-31T09:25:45.243Z,18.32
2019-01-31T09:28:32.269Z,18.37
2019-01-31T09:32:00.876Z,18.45
2019-01-31T09:35:05.202Z,19.62
2019-01-31T09:38:34.376Z,19.50
2019-01-31T09:41:18.795Z,17.60
2019-01-31T09:44:29.597Z,18.77
2019-01-31T09:47:32.164Z,20.52
2019-01-31T09:50:43.696Z,21.65
2019-01-31T09:53:44.738Z,20.30
2019-01-31T09:57:13.602Z,19.57
2019-01-31T09:59:58.768Z,19.20
2019-01-31T10:03:27.644Z,18.55
2019-01-31T10:06:38.474Z,19.35
2019-01-31T10:10:07.096Z,17.67
2019-01-31T10:13:16.170Z,18.95
2019-01-31T10:16:27.259Z,18.00
2019-01-31T10:19:36.352Z,18.87
2019-01-31T10:22:47.443Z,18.55
2019-01-31T10:25:58.828Z,17.00
2019-01-31T10:29:27.675Z,16.75
2019-01-31T10:32:36.955Z,17.02
2019-01-31T10:35:47.748Z,18.95
2019-01-31T10:38:32.215Z,17.67
2019-01-31T10:41:43.345Z,15.95
2019-01-31T10:44:27.818Z,15.30
2019-01-31T10:47:38.970Z,15.10
2019-01-31T10:50:47.982Z,15.05
2019-01-31T10:53:59.089Z,14.60
2019-01-31T10:57:01.138Z,13.83
2019-01-31T11:04:01.449Z,13.93
2019-01-31T11:07:31.748Z,13.28
2019-01-31T11:10:41.099Z,11.63
2019-01-31T11:14:09.961Z,12.15
2019-01-31T11:17:20.157Z,11.50
2019-01-31T11:20:22.923Z,11.80
2019-01-31T11:23:51.778Z,12.10
2019-01-31T11:30:03.717Z,11.83
2019-01-31T11:32:50.287Z,11.85
2019-01-31T11:36:18.914Z,11.25
2019-01-31T11:39:29.723Z,11.65
2019-01-31T11:42:14.792Z,11.48
2019-01-31T11:45:43.772Z,10.70
2019-01-31T11:48:30.613Z,11.43
2019-01-31T11:51:59.530Z,11.18
2019-01-31T11:54:44.160Z,11.83
2019-01-31T11:57:55.239Z,11.35
2019-01-31T12:00:38.430Z,11.33
2019-01-31T12:06:30.033Z,10.82
2019-01-31T12:09:20.147Z,12.30
2019-01-31T12:12:02.758Z,10.98
2019-01-31T12:14:52.533Z,12.78
2019-01-31T12:17:33.589Z,11.48
2019-01-31T12:20:23.961Z,12.07
2019-01-31T12:23:06.936Z,12.98
2019-01-31T12:25:56.718Z,11.75
2019-01-31T12:28:39.448Z,10.68
2019-01-31T12:31:29.845Z,11.78
2019-01-31T12:34:12.178Z,10.35
2019-01-31T12:37:02.653Z,10.88
2019-01-31T12:39:45.851Z,12.33
2019-01-31T12:42:35.631Z,11.68
2019-01-31T12:45:20.521Z,11.03
2019-01-31T12:48:10.273Z,11.30
2019-01-31T12:50:53.468Z,10.85
2019-01-31T12:53:43.251Z,10.95
2019-01-31T12:56:27.233Z,11.28
2019-01-31T12:59:17.004Z,9.65
2019-01-31T13:01:58.082Z,10.15
2019-01-31T13:04:47.862Z,10.65
2019-01-31T13:07:30.626Z,8.88
2019-01-31T13:10:21.032Z,9.65
2019-01-31T13:13:03.707Z,8.28
2019-01-31T13:15:53.749Z,8.30
2019-01-31T13:18:36.446Z,9.73
2019-01-31T13:21:26.194Z,8.70
2019-01-31T13:24:10.546Z,9.78
2019-01-31T13:27:00.696Z,9.28
2019-01-31T13:29:43.247Z,8.90
2019-01-31T13:32:32.994Z,11.00
2019-01-31T13:35:17.331Z,8.55
2019-01-31T13:38:07.441Z,9.20
2019-01-31T13:40:52.043Z,8.03
2019-01-31T13:43:41.800Z,11.90
2019-01-31T13:46:26.495Z,11.57
2019-01-31T13:49:17.931Z,10.13
2019-01-31T13:52:20.203Z,10.20
2019-01-31T13:55:31.005Z,8.95
2019-01-31T13:58:13.863Z,9.80
2019-01-31T14:01:03.641Z,10.75
2019-01-31T14:03:45.988Z,10.25
2019-01-31T14:06:35.771Z,11.25
2019-01-31T14:09:18.280Z,10.55
2019-01-31T14:12:08.129Z,11.05
2019-01-31T14:14:52.783Z,11.70
2019-01-31T14:17:42.539Z,10.38
2019-01-31T14:20:27.335Z,11.08
2019-01-31T14:23:17.401Z,11.05
2019-01-31T14:25:58.151Z,10.28
2019-01-31T14:28:48.490Z,10.65
2019-01-31T14:31:30.933Z,10.35
2019-01-31T14:34:20.702Z,10.48
2019-01-31T14:37:01.675Z,11.18
2019-01-31T14:43:18.599Z,10.00
2019-01-31T14:46:08.385Z,11.00
2019-01-31T14:48:58.188Z,10.95
2019-01-31T14:51:41.171Z,9.05
2019-01-31T14:54:30.967Z,12.37
2019-01-31T14:57:11.610Z,11.20
2019-01-31T14:59:54.820Z,11.48
2019-01-31T15:02:44.594Z,9.50
2019-01-31T15:05:27.279Z,11.73
2019-01-31T15:08:17.065Z,10.88
2019-01-31T15:10:59.967Z,10.30
2019-01-31T15:13:50.043Z,9.80
2019-01-31T15:16:33.412Z,9.75
2019-01-31T15:19:23.160Z,9.55
2019-01-31T15:22:05.537Z,10.10
2019-01-31T15:24:55.318Z,10.10
2019-01-31T15:27:38.505Z,10.53
2019-01-31T15:30:49.316Z,11.20
2019-01-31T15:33:20.155Z,9.60
2019-01-31T15:36:11.545Z,10.80
2019-01-31T15:38:54.858Z,10.18
2019-01-31T15:44:46.383Z,8.90
2019-01-31T15:50:38.247Z,10.10
2019-01-31T15:53:28.286Z,9.55
2019-01-31T15:56:11.512Z,9.75
2019-01-31T15:59:01.503Z,10.40
2019-01-31T16:01:46.417Z,11.93
2019-01-31T16:04:36.169Z,9.75
2019-01-31T16:07:21.001Z,12.25
2019-01-31T16:13:38.615Z,10.10
2019-01-31T16:16:28.642Z,10.45
2019-01-31T16:19:18.436Z,10.25
2019-01-31T16:22:00.819Z,9.78
2019-01-31T16:24:50.983Z,10.80
2019-01-31T16:27:34.973Z,11.97
2019-01-31T16:30:19.104Z,11.88
2019-01-31T16:36:35.433Z,11.90
2019-01-31T16:42:39.872Z,12.93
2019-01-31T16:45:22.985Z,15.70
2019-01-31T16:48:13.360Z,18.57
2019-01-31T16:50:56.708Z,19.23
2019-01-31T16:53:47.162Z,15.30
2019-01-31T16:56:30.494Z,14.10
2019-01-31T16:59:20.562Z,13.20
2019-01-31T17:02:03.140Z,13.65
2019-01-31T17:04:53.213Z,13.20
2019-01-31T17:07:36.034Z,16.32
2019-01-31T17:10:26.127Z,15.08
2019-01-31T17:13:10.782Z,13.78
2019-01-31T17:16:00.552Z,13.18
2019-01-31T17:18:45.655Z,11.20
2019-01-31T17:21:35.733Z,13.45
2019-01-31T17:24:18.282Z,12.63
2019-01-31T17:27:08.100Z,12.53
2019-01-31T17:29:50.515Z,13.40
2019-01-31T17:32:40.593Z,13.35
2019-01-31T17:35:23.772Z,13.22
2019-01-31T17:38:13.579Z,13.80
2019-01-31T17:40:56.650Z,13.65
2019-01-31T17:43:48.319Z,13.48
2019-01-31T17:46:51.439Z,14.93
2019-01-31T17:49:33.951Z,13.43
2019-01-31T17:52:23.712Z,14.28
2019-01-31T17:55:09.624Z,14.98
2019-01-31T17:57:59.399Z,16.32
2019-01-31T18:00:46.499Z,15.25
2019-01-31T18:03:36.552Z,15.58
2019-01-31T18:06:19.081Z,15.23
2019-01-31T18:09:08.906Z,15.63
2019-01-31T18:11:51.255Z,19.05
2019-01-31T18:17:42.965Z,19.82
2019-01-31T18:23:34.722Z,19.17
2019-01-31T18:26:24.514Z,101.45
2019-01-31T18:29:07.091Z,34.58
2019-01-31T18:31:56.870Z,22.35
2019-01-31T18:34:39.385Z,24.00
2019-01-31T18:37:29.668Z,28.32
2019-01-31T18:40:14.311Z,24.72
2019-01-31T18:43:04.068Z,25.52
2019-01-31T18:45:53.301Z,25.52
2019-01-31T18:48:33.528Z,27.13
2019-01-31T18:51:23.722Z,24.65
2019-01-31T18:54:06.264Z,28.32
2019-01-31T18:56:56.340Z,26.48
2019-01-31T18:59:39.268Z,26.33
2019-01-31T19:02:29.090Z,27.00
2019-01-31T19:05:12.308Z,26.52
2019-01-31T19:08:02.101Z,24.80
2019-01-31T19:10:46.500Z,25.70
2019-01-31T19:16:38.130Z,25.95
2019-01-31T19:19:23.108Z,27.30
2019-01-31T19:22:12.966Z,27.00
2019-01-31T19:24:55.446Z,26.40
2019-01-31T19:31:13.707Z,27.50
2019-01-31T19:34:03.767Z,27.40
2019-01-31T19:36:53.570Z,27.45
2019-01-31T19:39:36.116Z,29.48
2019-01-31T19:42:25.940Z,29.75
2019-01-31T19:45:12.210Z,29.18
2019-01-31T19:47:55.205Z,30.75
2019-01-31T19:50:44.973Z,30.60
2019-01-31T19:53:27.779Z,33.23
2019-01-31T19:56:17.542Z,30.75
2019-01-31T19:59:00.421Z,32.90
2019-01-31T20:01:50.829Z,31.77
2019-01-31T20:04:53.847Z,32.38
2019-01-31T20:07:43.764Z,29.72
2019-01-31T20:10:27.760Z,31.77
2019-01-31T20:13:17.794Z,32.83
2019-01-31T20:15:58.470Z,30.20
2019-01-31T20:21:56.278Z,32.93
2019-01-31T20:24:46.083Z,32.08
2019-01-31T20:27:30.810Z,30.10
2019-01-31T20:30:41.660Z,32.58
2019-01-31T20:33:24.577Z,31.20
2019-01-31T20:36:14.768Z,30.50
2019-01-31T20:38:57.497Z,32.08
2019-01-31T20:41:54.387Z,32.30
2019-01-31T20:44:51.562Z,29.77
2019-01-31T20:47:41.730Z,32.35
2019-01-31T20:50:42.092Z,33.00
2019-01-31T20:53:31.877Z,35.78
2019-01-31T20:56:14.303Z,31.27
2019-01-31T21:02:27.092Z,32.93
2019-01-31T21:05:10.415Z,34.35
2019-01-31T21:07:53.012Z,33.75
2019-01-31T21:10:42.777Z,34.48
2019-01-31T21:13:23.768Z,34.67
2019-01-31T21:16:13.797Z,34.95
2019-01-31T21:18:58.448Z,33.38
2019-01-31T21:21:48.213Z,33.08
2019-01-31T21:24:31.400Z,35.00
2019-01-31T21:27:21.466Z,32.10
2019-01-31T21:30:02.123Z,35.00
2019-01-31T21:32:44.856Z,36.13
2019-01-31T21:38:36.870Z,34.75
2019-01-31T21:41:27.193Z,37.83
2019-01-31T21:44:17.081Z,36.88
2019-01-31T21:47:03.423Z,36.48
2019-01-31T21:49:51.505Z,35.85
2019-01-31T21:52:36.558Z,36.80
2019-01-31T21:55:26.398Z,39.63
2019-01-31T21:58:11.439Z,38.13
2019-01-31T22:01:20.380Z,37.33
2019-01-31T22:04:04.923Z,34.50
2019-01-31T22:06:48.099Z,37.35
2019-01-31T22:09:30.904Z,38.95
2019-01-31T22:12:40.051Z,37.33
2019-01-31T22:15:23.851Z,39.18
2019-01-31T22:18:13.686Z,39.13
2019-01-31T22:21:03.747Z,38.17
2019-01-31T22:23:46.419Z,40.60
2019-01-31T22:26:36.520Z,40.28
2019-01-31T22:29:19.607Z,40.52
2019-01-31T22:32:28.509Z,38.85
2019-01-31T22:35:11.701Z,39.23
2019-01-31T22:38:01.819Z,41.70
2019-01-31T22:40:46.434Z,40.15
2019-01-31T22:43:36.218Z,40.20
2019-01-31T22:46:21.211Z,41.13
2019-01-31T22:52:44.681Z,39.08
2019-01-31T22:55:28.719Z,37.53
2019-01-31T22:58:18.798Z,41.33
2019-01-31T23:01:22.704Z,38.90
2019-01-31T23:04:12.501Z,41.80
2019-01-31T23:06:55.585Z,42.23
2019-01-31T23:09:45.582Z,42.88
2019-01-31T23:12:28.603Z,43.33
2019-01-31T23:15:18.364Z,39.63
2019-01-31T23:18:01.451Z,38.65
2019-01-31T23:20:51.241Z,43.40
2019-01-31T23:23:34.011Z,43.68
2019-01-31T23:26:24.112Z,44.50
2019-01-31T23:29:06.953Z,43.08
2019-01-31T23:31:56.720Z,41.30
2019-01-31T23:34:40.033Z,42.13
2019-01-31T23:37:29.819Z,44.70
2019-01-31T23:40:12.254Z,41.88
2019-01-31T23:46:04.971Z,40.70
2019-01-31T23:51:56.997Z,40.50
2019-01-31T23:54:47.053Z,47.65
2019-01-31T23:57:31.680Z,46.15
